createdAt,value
2023-01-10T00:01:59.097Z,100019.20
2023-01-10T00:04:27.309Z,100015.99
2023-01-10T00:06:55.164Z,100017.27
2023-01-10T00:09:23.112Z,100019.77
2023-01-10T00:12:09.676Z,100022.58
2023-01-10T00:14:37.684Z,100024.17
2023-01-10T00:17:05.493Z,100029.03
2023-01-10T00:19:33.251Z,100025.45
2023-01-10T00:22:12.502Z,100022.94
2023-01-10T00:24:41.630Z,100025.04
2023-01-10T00:27:11.083Z,100026.48
2023-01-10T00:29:38.962Z,100030.31
2023-01-10T00:32:06.918Z,100034.01
2023-01-10T00:34:35.536Z,100039.55
2023-01-10T00:37:03.725Z,100040.46
2023-01-10T00:39:31.518Z,100047.21
2023-01-10T00:42:17.865Z,100047.60
2023-01-10T00:44:46.935Z,100060.66
2023-01-10T00:47:15.328Z,100059.49
2023-01-10T00:49:43.212Z,100060.02
2023-01-10T00:52:11.045Z,100060.36
2023-01-10T00:54:38.946Z,100062.52
2023-01-10T00:57:06.768Z,100059.79
2023-01-10T00:59:34.675Z,100057.77
2023-01-10T01:02:02.623Z,100062.80
2023-01-10T01:04:34.511Z,100065.02
2023-01-10T01:07:03.492Z,100071.26
2023-01-10T01:09:31.392Z,100071.16
2023-01-10T01:11:59.281Z,100074.39
2023-01-10T01:14:27.525Z,100080.95
2023-01-10T01:16:55.479Z,100081.34
2023-01-10T01:19:23.294Z,100086.91
2023-01-10T01:21:51.165Z,100090.15
2023-01-10T01:24:19.192Z,100094.31
2023-01-10T01:26:47.035Z,100098.85
2023-01-10T01:29:16.731Z,100105.88
2023-01-10T01:31:46.103Z,100107.08
2023-01-10T01:34:14.804Z,100113.23
2023-01-10T01:36:42.791Z,100116.44
2023-01-10T01:39:10.661Z,100116.13
2023-01-10T01:41:57.347Z,100119.50
2023-01-10T01:44:32.143Z,100122.61
2023-01-10T01:47:08.137Z,100121.41
2023-01-10T01:49:41.173Z,100124.14
2023-01-10T01:52:15.910Z,100129.99
2023-01-10T01:54:43.881Z,100128.98
2023-01-10T01:57:17.588Z,100133.20
2023-01-10T01:59:48.674Z,100132.91
2023-01-10T02:02:24.662Z,100136.77
2023-01-10T02:05:00.674Z,100136.00
2023-01-10T02:07:33.980Z,100132.83
2023-01-10T02:10:09.416Z,100137.12
2023-01-10T02:12:38.630Z,100138.22
2023-01-10T02:15:07.117Z,100145.69
2023-01-10T02:17:35.115Z,100148.77
2023-01-10T02:20:09.068Z,100151.32
2023-01-10T02:23:01.617Z,100149.61
2023-01-10T02:26:00.502Z,100157.20
2023-01-10T02:28:46.405Z,100155.67
2023-01-10T02:31:26.628Z,100160.55
2023-01-10T02:34:19.517Z,100163.39
2023-01-10T02:37:02.425Z,100162.77
2023-01-10T02:39:49.135Z,100159.70
2023-01-10T02:42:30.318Z,100161.95
2023-01-10T02:45:10.149Z,100166.27
2023-01-10T02:47:40.244Z,100165.19
2023-01-10T02:50:44.869Z,100168.09
2023-01-10T02:53:34.572Z,100172.67
2023-01-10T02:56:22.578Z,100173.88
2023-01-10T02:59:06.614Z,100172.74
2023-01-10T03:01:35.462Z,100180.30
2023-01-10T03:04:17.726Z,100183.54
2023-01-10T03:06:59.452Z,100188.27
2023-01-10T03:09:35.413Z,100189.76
2023-01-10T03:12:26.471Z,100191.79
2023-01-10T03:14:56.838Z,100189.16
2023-01-10T03:17:27.363Z,100191.48
2023-01-10T03:20:01.078Z,100198.45
2023-01-10T03:22:31.324Z,100204.60
2023-01-10T03:25:01.709Z,100207.33
2023-01-10T03:27:40.244Z,100213.19
2023-01-10T03:30:20.839Z,100217.77
2023-01-10T03:32:48.805Z,100223.27
2023-01-10T03:35:17.313Z,100227.09
2023-01-10T03:37:58.395Z,100235.19
2023-01-10T03:40:59.357Z,100233.08
2023-01-10T03:44:13.165Z,100234.38
2023-01-10T03:46:52.656Z,100234.65
2023-01-10T03:49:24.617Z,100239.49
2023-01-10T03:51:53.996Z,100246.35
2023-01-10T03:54:21.876Z,100248.27
2023-01-10T03:56:51.587Z,100250.31
2023-01-10T03:59:24.321Z,100256.59
2023-01-10T04:01:53.004Z,100260.79
2023-01-10T04:04:21.532Z,100264.58
2023-01-10T04:06:49.342Z,100270.30
2023-01-10T04:09:17.342Z,100276.45
2023-01-10T04:11:45.538Z,100282.91
2023-01-10T04:14:13.304Z,100287.05
2023-01-10T04:16:41.196Z,100292.23
2023-01-10T04:19:09.031Z,100295.73
2023-01-10T04:21:36.902Z,100302.66
2023-01-10T04:24:05.056Z,100309.55
2023-01-10T04:26:33.007Z,100316.90
2023-01-10T04:29:00.890Z,100317.71
2023-01-10T04:31:29.333Z,100328.35
2023-01-10T04:33:57.269Z,100326.88
2023-01-10T04:36:25.308Z,100331.13
2023-01-10T04:38:53.332Z,100339.05
2023-01-10T04:41:21.204Z,100335.07
2023-01-10T04:43:49.827Z,100342.33
2023-01-10T04:46:17.787Z,100344.39
2023-01-10T04:48:45.694Z,100351.89
2023-01-10T04:51:13.645Z,100353.41
2023-01-10T04:53:41.611Z,100354.24
2023-01-10T04:56:15.140Z,100361.20
2023-01-10T04:58:42.988Z,100368.54
2023-01-10T05:01:13.483Z,100374.61
2023-01-10T05:03:41.572Z,100377.18
2023-01-10T05:06:10.217Z,100381.60
2023-01-10T05:08:38.112Z,100384.73
2023-01-10T05:11:05.894Z,100387.55
2023-01-10T05:13:34.126Z,100389.04
2023-01-10T05:16:01.905Z,100393.20
2023-01-10T05:18:30.606Z,100395.89
2023-01-10T05:21:04.004Z,100402.53
2023-01-10T05:23:32.075Z,100406.38
2023-01-10T05:26:12.835Z,100413.92
2023-01-10T05:28:41.731Z,100413.38
2023-01-10T05:31:12.563Z,100417.35
2023-01-10T05:33:44.671Z,100417.08
2023-01-10T05:36:12.539Z,100422.44
2023-01-10T05:38:40.547Z,100431.85
2023-01-10T05:41:08.773Z,100439.20
2023-01-10T05:43:36.756Z,100446.31
2023-01-10T05:46:04.896Z,100452.30
2023-01-10T05:48:32.833Z,100462.67
2023-01-10T05:51:00.847Z,100469.86
2023-01-10T05:53:28.728Z,100477.71
2023-01-10T05:55:59.456Z,100480.91
2023-01-10T05:58:28.359Z,100487.67
2023-01-10T06:00:57.246Z,100491.30
2023-01-10T06:03:26.824Z,100494.33
2023-01-10T06:05:55.659Z,100500.63
2023-01-10T06:08:24.755Z,100508.24
2023-01-10T06:10:52.722Z,100510.83
2023-01-10T06:13:20.648Z,100516.04
2023-01-10T06:15:49.148Z,100517.67
2023-01-10T06:18:17.107Z,100521.42
2023-01-10T06:20:45.315Z,100527.30
2023-01-10T06:23:13.380Z,100535.00
2023-01-10T06:25:41.857Z,100542.20
2023-01-10T06:28:11.776Z,100547.14
2023-01-10T06:30:42.203Z,100552.01
2023-01-10T06:33:11.224Z,100557.67
2023-01-10T06:35:40.570Z,100557.41
2023-01-10T06:38:09.005Z,100558.43
2023-01-10T06:40:36.922Z,100564.38
2023-01-10T06:43:04.775Z,100569.21
2023-01-10T06:45:33.383Z,100575.85
2023-01-10T06:48:01.241Z,100576.65
2023-01-10T06:50:29.407Z,100581.67
2023-01-10T06:52:59.047Z,100585.60
2023-01-10T06:55:27.675Z,100592.20
2023-01-10T06:58:00.578Z,100594.23
2023-01-10T07:00:30.418Z,100592.73
2023-01-10T07:02:59.752Z,100596.39
2023-01-10T07:05:29.732Z,100597.30
2023-01-10T07:07:59.018Z,100606.06
2023-01-10T07:10:27.940Z,100615.29
2023-01-10T07:12:56.887Z,100618.54
2023-01-10T07:15:27.167Z,100620.73
2023-01-10T07:17:58.604Z,100623.00
2023-01-10T07:20:27.413Z,100629.03
2023-01-10T07:22:58.426Z,100634.33
2023-01-10T07:25:28.624Z,100635.52
2023-01-10T07:27:56.805Z,100633.30
2023-01-10T07:30:26.147Z,100636.35
2023-01-10T07:32:57.962Z,100645.70
2023-01-10T07:35:26.215Z,100652.08
2023-01-10T07:37:54.143Z,100655.59
2023-01-10T07:40:21.971Z,100661.59
2023-01-10T07:42:50.208Z,100663.86
2023-01-10T07:45:18.165Z,100666.20
2023-01-10T07:47:46.997Z,100662.98
2023-01-10T07:50:17.860Z,100664.58
2023-01-10T07:52:46.186Z,100668.59
2023-01-10T07:55:14.192Z,100670.92
2023-01-10T07:57:42.187Z,100680.84
2023-01-10T08:00:11.121Z,100687.09
2023-01-10T08:02:39.073Z,100691.12
2023-01-10T08:05:07.415Z,100695.61
2023-01-10T08:07:35.553Z,100700.67
2023-01-10T08:10:05.202Z,100702.98
2023-01-10T08:12:33.467Z,100708.58
2023-01-10T08:15:01.324Z,100712.25
2023-01-10T08:17:29.263Z,100711.35
2023-01-10T08:19:57.145Z,100714.29
2023-01-10T08:22:24.896Z,100714.34
2023-01-10T08:24:53.180Z,100718.10
2023-01-10T08:27:21.148Z,100718.76
2023-01-10T08:29:48.993Z,100721.05
2023-01-10T08:32:16.847Z,100722.27
2023-01-10T08:34:44.794Z,100721.30
2023-01-10T08:37:14.113Z,100730.55
2023-01-10T08:39:42.012Z,100730.05
2023-01-10T08:42:10.359Z,100736.38
2023-01-10T08:44:38.288Z,100737.35
2023-01-10T08:47:06.097Z,100741.58
2023-01-10T08:49:34.102Z,100744.41
2023-01-10T08:52:02.790Z,100749.43
2023-01-10T08:54:31.028Z,100752.45
2023-01-10T08:56:59.499Z,100756.48
2023-01-10T08:59:27.354Z,100761.63
2023-01-10T09:01:58.518Z,100767.60
2023-01-10T09:04:29.319Z,100773.61
2023-01-10T09:06:58.367Z,100777.82
2023-01-10T09:09:26.261Z,100777.55
2023-01-10T09:11:54.129Z,100783.00
2023-01-10T09:14:22.009Z,100788.17
2023-01-10T09:16:51.864Z,100791.64
2023-01-10T09:19:19.681Z,100798.46
2023-01-10T09:21:47.860Z,100798.29
2023-01-10T09:24:16.197Z,100806.40
2023-01-10T09:26:44.950Z,100807.14
2023-01-10T09:29:12.754Z,100803.90
2023-01-10T09:31:40.645Z,100808.40
2023-01-10T09:34:08.746Z,100813.90
2023-01-10T09:36:36.560Z,100815.41
2023-01-10T09:39:04.570Z,100821.04
2023-01-10T09:42:11.573Z,100821.77
2023-01-10T09:44:42.303Z,100826.72
2023-01-10T09:47:29.504Z,100830.98
2023-01-10T09:50:06.552Z,100829.14
2023-01-10T09:52:39.946Z,100830.41
2023-01-10T09:55:31.488Z,100830.73
2023-01-10T09:58:13.342Z,100835.81
2023-01-10T10:00:47.947Z,100831.88
2023-01-10T10:03:30.273Z,100834.21
2023-01-10T10:06:11.199Z,100831.44
2023-01-10T10:08:42.116Z,100831.92
2023-01-10T10:11:11.067Z,100829.82
2023-01-10T10:14:11.721Z,100830.66
2023-01-10T10:17:13.661Z,100833.85
2023-01-10T10:20:20.639Z,100837.11
2023-01-10T10:23:17.623Z,100843.59
2023-01-10T10:26:02.739Z,100841.23
2023-01-10T10:28:53.463Z,100841.23
2023-01-10T10:31:44.974Z,100844.61
2023-01-10T10:34:38.793Z,100850.85
2023-01-10T10:37:17.738Z,100855.63
2023-01-10T10:39:57.029Z,100860.27
2023-01-10T10:42:30.524Z,100861.64
2023-01-10T10:45:15.261Z,100858.25
2023-01-10T10:47:50.156Z,100862.02
2023-01-10T10:50:31.602Z,100870.45
2023-01-10T10:53:04.231Z,100876.52
2023-01-10T10:55:35.753Z,100882.73
2023-01-10T10:58:05.870Z,100888.54
2023-01-10T11:00:34.648Z,100897.53
2023-01-10T11:03:13.199Z,100897.20
2023-01-10T11:05:44.832Z,100900.90
2023-01-10T11:08:16.232Z,100908.95
2023-01-10T11:10:52.440Z,100910.30
2023-01-10T11:13:32.369Z,100911.98
2023-01-10T11:16:02.196Z,100909.95
2023-01-10T11:18:31.973Z,100912.67
2023-01-10T11:21:14.078Z,100909.30
2023-01-10T11:23:49.230Z,100913.63
2023-01-10T11:26:37.372Z,100914.62
2023-01-10T11:29:33.497Z,100916.31
2023-01-10T11:32:10.086Z,100924.96
2023-01-10T11:34:38.862Z,100927.39
2023-01-10T11:37:32.444Z,100931.16
2023-01-10T11:40:24.315Z,100934.59
2023-01-10T11:42:59.237Z,100939.27
2023-01-10T11:45:31.929Z,100941.56
2023-01-10T11:48:21.389Z,100946.20
2023-01-10T11:50:55.913Z,100951.20
2023-01-10T11:53:42.549Z,100952.91
2023-01-10T11:56:14.472Z,100953.82
2023-01-10T11:58:44.057Z,100958.69
2023-01-10T12:01:39.964Z,100960.27
2023-01-10T12:04:18.001Z,100958.22
2023-01-10T12:06:49.862Z,100958.97
2023-01-10T12:09:36.561Z,100958.48
2023-01-10T12:12:25.544Z,100962.61
2023-01-10T12:14:56.092Z,100963.61
2023-01-10T12:17:23.883Z,100965.48
2023-01-10T12:19:53.713Z,100965.36
2023-01-10T12:22:29.717Z,100960.08
2023-01-10T12:24:59.874Z,100968.48
2023-01-10T12:27:28.988Z,100980.83
2023-01-10T12:30:35.112Z,100986.48
2023-01-10T12:33:17.299Z,100982.27
2023-01-10T12:36:23.797Z,100980.38
2023-01-10T12:39:27.027Z,100980.52
2023-01-10T12:42:36.304Z,100986.06
2023-01-10T12:45:08.661Z,100986.20
2023-01-10T12:48:07.971Z,100985.92
2023-01-10T12:50:46.257Z,100988.26
2023-01-10T12:53:23.705Z,100988.28
2023-01-10T12:55:55.587Z,100983.25
2023-01-10T12:58:35.957Z,100993.61
2023-01-10T13:01:05.951Z,100989.20
2023-01-10T13:03:35.675Z,100997.19
2023-01-10T13:06:04.239Z,101001.57
2023-01-10T13:08:37.994Z,101000.20
2023-01-10T13:11:07.994Z,101002.73
2023-01-10T13:13:41.100Z,101008.37
2023-01-10T13:16:24.155Z,101010.77
2023-01-10T13:19:23.106Z,101009.86
2023-01-10T13:21:52.515Z,101011.73
2023-01-10T13:24:29.086Z,101015.36
2023-01-10T13:27:00.448Z,101022.73
2023-01-10T13:29:39.230Z,101028.59
2023-01-10T13:32:27.068Z,101039.43
2023-01-10T13:35:08.600Z,101042.77
2023-01-10T13:37:40.106Z,101042.92
2023-01-10T13:40:08.466Z,101047.67
2023-01-10T13:42:56.422Z,101051.12
2023-01-10T13:45:27.713Z,101055.58
2023-01-10T13:47:55.772Z,101062.04
2023-01-10T13:50:28.599Z,101062.35
2023-01-10T13:53:02.510Z,101062.98
2023-01-10T13:55:35.973Z,101066.71
2023-01-10T13:58:09.784Z,101069.36
2023-01-10T14:00:56.507Z,101071.20
2023-01-10T14:03:50.393Z,101074.50
2023-01-10T14:06:20.524Z,101077.98
2023-01-10T14:08:52.263Z,101082.08
2023-01-10T14:11:23.608Z,101084.90
2023-01-10T14:13:56.147Z,101085.87
2023-01-10T14:16:34.746Z,101083.79
2023-01-10T14:19:07.043Z,101089.29
2023-01-10T14:21:45.382Z,101093.47
2023-01-10T14:24:26.089Z,101099.11
2023-01-10T14:26:58.728Z,101104.29
2023-01-10T14:29:31.859Z,101101.70
2023-01-10T14:32:01.437Z,101101.46
2023-01-10T14:34:35.741Z,101100.58
2023-01-10T14:37:09.619Z,101098.63
2023-01-10T14:39:38.155Z,101104.98
2023-01-10T14:42:14.051Z,101102.70
2023-01-10T14:44:50.776Z,101106.59
2023-01-10T14:47:32.867Z,101105.61
2023-01-10T14:50:02.004Z,101106.00
2023-01-10T14:52:30.919Z,101110.17
2023-01-10T14:55:13.993Z,101119.40
2023-01-10T14:57:53.719Z,101127.66
2023-01-10T15:00:30.304Z,101130.35
2023-01-10T15:03:03.140Z,101133.34
2023-01-10T15:05:36.579Z,101133.69
2023-01-10T15:08:27.133Z,101138.81
2023-01-10T15:11:00.928Z,101141.75
2023-01-10T15:13:31.489Z,101145.51
2023-01-10T15:16:00.266Z,101152.00
2023-01-10T15:18:36.236Z,101155.05
2023-01-10T15:21:05.299Z,101154.30
2023-01-10T15:23:39.145Z,101158.98
2023-01-10T15:26:20.702Z,101160.73
2023-01-10T15:29:10.972Z,101164.41
2023-01-10T15:31:40.308Z,101163.02
2023-01-10T15:34:11.261Z,101170.15
2023-01-10T15:36:52.989Z,101174.92
2023-01-10T15:39:27.176Z,101176.88
2023-01-10T15:42:02.022Z,101178.27
2023-01-10T15:44:41.145Z,101180.65
2023-01-10T15:47:40.559Z,101177.63
2023-01-10T15:50:32.090Z,101178.94
2023-01-10T15:53:03.679Z,101184.37
2023-01-10T15:55:39.657Z,101187.95
2023-01-10T15:58:13.612Z,101185.65
2023-01-10T16:00:51.747Z,101179.69
2023-01-10T16:03:23.166Z,101176.82
2023-01-10T16:05:58.849Z,101177.56
2023-01-10T16:08:30.970Z,101177.84
2023-01-10T16:11:01.380Z,101176.20
2023-01-10T16:13:31.831Z,101176.68
2023-01-10T16:16:02.291Z,101184.54
2023-01-10T16:18:30.725Z,101185.59
2023-01-10T16:21:03.195Z,101196.27
2023-01-10T16:23:36.007Z,101203.79
2023-01-10T16:26:06.686Z,101206.69
2023-01-10T16:28:38.094Z,101210.21
2023-01-10T16:31:10.468Z,101207.80
2023-01-10T16:33:38.803Z,101208.36
2023-01-10T16:36:17.701Z,101210.55
2023-01-10T16:38:45.600Z,101212.77
2023-01-10T16:41:33.788Z,101210.09
2023-01-10T16:44:01.913Z,101204.61
2023-01-10T16:46:30.336Z,101208.36
2023-01-10T16:48:58.209Z,101212.25
2023-01-10T16:51:30.365Z,101209.69
2023-01-10T16:53:58.565Z,101214.81
2023-01-10T16:56:29.005Z,101224.39
2023-01-10T16:58:57.682Z,101226.45
2023-01-10T17:01:54.589Z,101221.54
2023-01-10T17:04:28.146Z,101225.67
2023-01-10T17:06:56.942Z,101230.58
2023-01-10T17:09:27.293Z,101231.03
2023-01-10T17:12:10.759Z,101231.36
2023-01-10T17:14:39.055Z,101228.02
2023-01-10T17:17:06.896Z,101229.63
2023-01-10T17:19:35.202Z,101227.92
2023-01-10T17:22:03.064Z,101226.75
2023-01-10T17:24:30.971Z,101230.88
2023-01-10T17:26:58.914Z,101230.77
2023-01-10T17:29:26.847Z,101237.94
2023-01-10T17:31:54.783Z,101241.14
2023-01-10T17:34:22.602Z,101236.33
2023-01-10T17:36:50.598Z,101236.12
2023-01-10T17:39:18.519Z,101232.98
2023-01-10T17:41:46.404Z,101233.59
2023-01-10T17:44:14.319Z,101241.75
2023-01-10T17:46:42.229Z,101249.65
2023-01-10T17:49:11.888Z,101240.38
2023-01-10T17:51:41.310Z,101232.88
2023-01-10T17:54:09.215Z,101233.77
2023-01-10T17:56:37.044Z,101240.21
2023-01-10T17:59:04.919Z,101240.57
2023-01-10T18:01:32.931Z,101242.26
2023-01-10T18:04:00.911Z,101249.94
2023-01-10T18:06:28.798Z,101256.17
2023-01-10T18:08:56.862Z,101261.23
2023-01-10T18:11:25.411Z,101261.92
2023-01-10T18:13:54.790Z,101264.97
2023-01-10T18:16:23.627Z,101267.36
2023-01-10T18:18:53.034Z,101267.20
2023-01-10T18:21:20.977Z,101265.73
2023-01-10T18:23:49.936Z,101266.57
2023-01-10T18:26:18.024Z,101268.48
2023-01-10T18:28:45.927Z,101268.77
2023-01-10T18:31:16.700Z,101270.75
2023-01-10T18:33:45.914Z,101271.41
2023-01-10T18:36:20.705Z,101271.16
2023-01-10T18:38:49.383Z,101274.23
2023-01-10T18:41:18.759Z,101276.21
2023-01-10T18:43:47.236Z,101277.09
2023-01-10T18:46:21.222Z,101273.46
2023-01-10T18:48:52.577Z,101274.80
2023-01-10T18:51:22.704Z,101278.55
2023-01-10T18:53:53.021Z,101284.38
2023-01-10T18:56:21.119Z,101281.12
2023-01-10T18:58:49.130Z,101284.83
2023-01-10T19:01:19.585Z,101288.99
2023-01-10T19:03:48.205Z,101288.87
2023-01-10T19:06:17.594Z,101291.61
2023-01-10T19:08:47.011Z,101293.39
2023-01-10T19:11:16.778Z,101291.21
2023-01-10T19:13:47.130Z,101290.77
2023-01-10T19:16:24.139Z,101287.05
2023-01-10T19:18:58.148Z,101286.77
2023-01-10T19:21:27.721Z,101281.12
2023-01-10T19:23:56.746Z,101278.14
2023-01-10T19:26:25.597Z,101282.08
2023-01-10T19:28:53.878Z,101280.34
2023-01-10T19:31:27.581Z,101278.92
2023-01-10T19:33:59.346Z,101279.93
2023-01-10T19:36:28.447Z,101277.17
2023-01-10T19:38:58.350Z,101282.90
2023-01-10T19:41:27.790Z,101285.95
2023-01-10T19:44:01.334Z,101287.94
2023-01-10T19:46:32.337Z,101290.75
2023-01-10T19:49:07.812Z,101293.86
2023-01-10T19:51:38.063Z,101293.28
2023-01-10T19:54:08.085Z,101295.21
2023-01-10T19:56:36.434Z,101295.05
2023-01-10T19:59:04.508Z,101299.09
2023-01-10T20:01:32.467Z,101300.16
2023-01-10T20:04:04.059Z,101295.67
2023-01-10T20:06:35.206Z,101297.45
2023-01-10T20:09:03.860Z,101299.13
2023-01-10T20:11:37.895Z,101300.73
2023-01-10T20:14:12.119Z,101300.13
2023-01-10T20:16:41.699Z,101300.71
2023-01-10T20:19:11.648Z,101302.61
2023-01-10T20:21:41.394Z,101302.96
2023-01-10T20:24:14.441Z,101300.86
2023-01-10T20:26:43.664Z,101299.44
2023-01-10T20:29:12.403Z,101300.73
2023-01-10T20:31:40.353Z,101298.02
2023-01-10T20:34:08.959Z,101294.39
2023-01-10T20:36:36.853Z,101292.41
2023-01-10T20:39:04.810Z,101293.63
2023-01-10T20:41:32.869Z,101291.50
2023-01-10T20:44:00.844Z,101290.51
2023-01-10T20:46:31.888Z,101294.37
2023-01-10T20:49:02.370Z,101295.23
2023-01-10T20:51:33.852Z,101290.88
2023-01-10T20:54:02.311Z,101291.13
2023-01-10T20:56:31.950Z,101288.16
2023-01-10T20:58:59.869Z,101289.40
2023-01-10T21:01:34.622Z,101289.89
2023-01-10T21:04:05.079Z,101288.98
2023-01-10T21:06:34.142Z,101293.23
2023-01-10T21:09:02.225Z,101295.04
2023-01-10T21:11:30.217Z,101293.81
2023-01-10T21:13:58.132Z,101292.48
2023-01-10T21:16:26.051Z,101289.63
2023-01-10T21:18:54.119Z,101290.44
2023-01-10T21:21:24.867Z,101293.31
2023-01-10T21:23:55.845Z,101292.16
2023-01-10T21:26:23.736Z,101288.35
2023-01-10T21:28:51.533Z,101287.52
2023-01-10T21:31:21.662Z,101283.48
2023-01-10T21:33:50.087Z,101283.88
2023-01-10T21:36:18.152Z,101277.58
2023-01-10T21:38:46.629Z,101279.33
2023-01-10T21:41:38.380Z,101276.88
2023-01-10T21:44:07.495Z,101273.87
2023-01-10T21:46:35.974Z,101272.84
2023-01-10T21:49:05.107Z,101268.29
2023-01-10T21:51:32.973Z,101273.58
2023-01-10T21:54:00.950Z,101278.50
2023-01-10T21:56:28.809Z,101279.47
2023-01-10T21:58:56.622Z,101285.39
2023-01-10T22:01:24.456Z,101289.98
2023-01-10T22:03:52.552Z,101291.61
2023-01-10T22:06:20.468Z,101288.98
2023-01-10T22:08:49.524Z,101282.73
2023-01-10T22:11:17.389Z,101280.53
2023-01-10T22:13:45.216Z,101281.34
2023-01-10T22:16:13.877Z,101281.55
2023-01-10T22:18:42.788Z,101275.77
2023-01-10T22:21:12.640Z,101281.00
2023-01-10T22:23:43.118Z,101275.18
2023-01-10T22:26:14.112Z,101274.09
2023-01-10T22:28:42.424Z,101276.00
2023-01-10T22:31:10.316Z,101275.34
2023-01-10T22:33:38.620Z,101272.42
2023-01-10T22:36:13.362Z,101269.20
2023-01-10T22:38:41.819Z,101267.20
2023-01-10T22:41:12.645Z,101262.85
2023-01-10T22:43:40.999Z,101261.66
2023-01-10T22:46:09.637Z,101261.26
2023-01-10T22:48:38.323Z,101258.77
2023-01-10T22:51:06.452Z,101255.95
2023-01-10T22:53:35.256Z,101252.05
2023-01-10T22:56:05.793Z,101249.27
2023-01-10T22:58:33.787Z,101253.27
2023-01-10T23:01:06.494Z,101251.70
2023-01-10T23:03:34.853Z,101244.77
2023-01-10T23:06:02.724Z,101246.09
2023-01-10T23:08:31.816Z,101240.46
2023-01-10T23:11:00.551Z,101238.36
2023-01-10T23:13:30.206Z,101237.11
2023-01-10T23:16:06.311Z,101237.32
2023-01-10T23:18:34.577Z,101237.16
2023-01-10T23:21:02.487Z,101235.77
2023-01-10T23:23:31.042Z,101235.33
2023-01-10T23:26:03.959Z,101236.19
2023-01-10T23:28:32.771Z,101232.05
2023-01-10T23:31:00.866Z,101234.14
2023-01-10T23:33:28.924Z,101228.77
2023-01-10T23:35:57.001Z,101225.41
2023-01-10T23:38:25.181Z,101228.08
2023-01-10T23:40:53.034Z,101226.08
2023-01-10T23:43:21.766Z,101221.85
2023-01-10T23:45:49.945Z,101220.08
2023-01-10T23:48:18.835Z,101223.54
2023-01-10T23:50:48.819Z,101221.36
2023-01-10T23:53:18.000Z,101225.77
2023-01-10T23:55:45.917Z,101226.02
2023-01-10T23:58:15.383Z,101223.42
